Time;durP1;ratioP1;P1;durP2;ratioP2;P2;SDS_P1;SDS_P2;PMS_P1;PMS_P2;Temp;Humidity;BMP_temperature;BMP_pressure;BME280_temperature;BME280_humidity;BME280_pressure;Samples;Min_cycle;Max_cycle;Signal;HPM_P1;HPM_P2
2021/03/24 00:00:47;;;;;;;;;;;4.00;86.30;;;;;;5092700;28;19938;-72
2021/03/24 00:03:13;;;;;;;;;;;3.90;86.30;;;;;;5092417;28;20015;-72
2021/03/24 00:05:41;;;;;;;;;;;3.90;86.30;;;;;;5074526;28;19962;-73
2021/03/24 00:08:07;;;;;;;;;;;3.80;86.20;;;;;;5092680;28;20346;-73
2021/03/24 00:10:33;;;;;;;;;;;3.80;86.20;;;;;;5092550;28;19919;-73
2021/03/24 00:12:59;;;;;;;;;;;3.80;86.20;;;;;;5074430;28;20062;-73
2021/03/24 00:15:25;;;;;;;;;;;3.80;86.30;;;;;;5093153;28;19912;-73
2021/03/24 00:17:51;;;;;;;;;;;3.70;86.20;;;;;;5092712;28;19937;-74
2021/03/24 00:20:18;;;;;;;;;;;3.70;86.90;;;;;;5074219;28;20379;-74
2021/03/24 00:22:44;;;;;;;;;;;3.70;86.30;;;;;;5074311;28;19939;-76
2021/03/24 00:25:12;;;;;;;;;;;3.70;86.30;;;;;;5092208;28;20370;-76
2021/03/24 00:27:38;;;;;;;;;;;3.70;86.40;;;;;;5092365;28;19927;-76
2021/03/24 00:30:03;;;;;;;;;;;3.60;86.40;;;;;;5075223;28;20269;-76
2021/03/24 00:32:29;;;;;;;;;;;3.50;86.30;;;;;;5095964;28;19965;-76
2021/03/24 00:34:54;;;;;;;;;;;3.50;86.30;;;;;;5096003;28;19938;-76
2021/03/24 00:37:20;;;;;;;;;;;3.50;86.40;;;;;;5095706;28;19912;-76
2021/03/24 00:39:46;;;;;;;;;;;3.50;86.40;;;;;;5077696;28;20006;-76
2021/03/24 00:42:11;;;;;;;;;;;3.50;86.50;;;;;;5095626;28;20031;-76
2021/03/24 00:44:37;;;;;;;;;;;3.50;86.50;;;;;;5096273;28;19919;-76
2021/03/24 00:47:03;;;;;;;;;;;3.50;86.50;;;;;;5095713;28;19955;-76
2021/03/24 00:49:28;;;;;;;;;;;3.40;86.40;;;;;;5095548;28;20354;-76
2021/03/24 00:51:54;;;;;;;;;;;3.40;86.40;;;;;;5095536;28;20002;-76
2021/03/24 00:54:20;;;;;;;;;;;3.50;86.40;;;;;;5095559;28;19912;-76
2021/03/24 00:56:46;;;;;;;;;;;3.40;86.40;;;;;;5096366;28;20269;-77
2021/03/24 00:59:12;;;;;;;;;;;3.30;86.30;;;;;;5095523;28;19919;-77
2021/03/24 01:01:38;;;;;;;;;;;3.30;86.40;;;;;;5095548;28;20389;-77
2021/03/24 01:04:04;;;;;;;;;;;3.30;86.50;;;;;;5095625;28;20029;-77
2021/03/24 01:06:29;;;;;;;;;;;3.20;86.40;;;;;;5095292;28;19957;-76
2021/03/24 01:08:56;;;;;;;;;;;3.20;86.50;;;;;;5095127;28;19919;-77
2021/03/24 01:11:22;;;;;;;;;;;3.20;86.50;;;;;;5095319;28;20010;-77
2021/03/24 01:13:47;;;;;;;;;;;3.30;86.60;;;;;;5095124;28;20006;-77
2021/03/24 01:16:13;;;;;;;;;;;3.20;86.50;;;;;;5077198;28;19912;-77
2021/03/24 01:18:39;;;;;;;;;;;3.20;86.60;;;;;;5095051;28;19912;-77
2021/03/24 01:21:04;;;;;;;;;;;3.20;86.50;;;;;;5077287;28;20022;-76
2021/03/24 01:23:30;;;;;;;;;;;3.20;86.60;;;;;;5094804;28;19945;-77
2021/03/24 01:25:55;;;;;;;;;;;3.10;86.50;;;;;;5095062;28;20290;-77
2021/03/24 01:28:27;;;;;;;;;;;3.10;86.60;;;;;;5095107;28;19997;-77
2021/03/24 01:30:53;;;;;;;;;;;3.00;86.50;;;;;;5093627;28;19912;-77
2021/03/24 01:33:19;;;;;;;;;;;3.10;86.60;;;;;;5075041;28;19908;-77
2021/03/24 01:35:44;;;;;;;;;;;2.90;86.50;;;;;;5094863;28;19923;-77
2021/03/24 01:38:10;;;;;;;;;;;3.00;86.60;;;;;;5095024;28;19908;-77
2021/03/24 01:40:38;;;;;;;;;;;3.00;86.60;;;;;;5094490;28;19911;-77
2021/03/24 01:43:06;;;;;;;;;;;3.00;86.70;;;;;;5094858;28;20495;-77
2021/03/24 01:45:51;;;;;;;;;;;2.90;86.60;;;;;;5094838;28;19912;-77
2021/03/24 01:48:18;;;;;;;;;;;2.90;86.60;;;;;;5079401;28;19912;-77
2021/03/24 01:50:44;;;;;;;;;;;2.90;86.70;;;;;;5094823;28;19919;-77
2021/03/24 01:53:10;;;;;;;;;;;2.90;86.60;;;;;;5094905;28;20398;-77
2021/03/24 01:55:36;;;;;;;;;;;2.80;86.50;;;;;;5076582;28;19941;-77
2021/03/24 01:58:01;;;;;;;;;;;2.90;86.60;;;;;;5094474;28;20010;-77
2021/03/24 02:00:30;;;;;;;;;;;2.90;86.70;;;;;;5094595;28;20026;-77
2021/03/24 02:02:56;;;;;;;;;;;2.90;86.50;;;;;;5095093;28;19916;-76
2021/03/24 02:05:22;;;;;;;;;;;2.90;86.50;;;;;;5094691;28;19919;-77
2021/03/24 02:07:53;;;;;;;;;;;2.80;86.50;;;;;;5094513;28;19923;-77
2021/03/24 02:10:32;;;;;;;;;;;2.80;86.50;;;;;;5076365;28;19978;-76
2021/03/24 02:13:03;;;;;;;;;;;2.70;86.50;;;;;;5093149;28;20400;-77
2021/03/24 02:15:30;;;;;;;;;;;2.80;86.50;;;;;;5094377;28;19912;-77
2021/03/24 02:17:56;;;;;;;;;;;2.80;86.50;;;;;;5076215;28;19912;-77
2021/03/24 02:20:27;;;;;;;;;;;2.70;86.50;;;;;;5094177;28;20048;-77
2021/03/24 02:22:55;;;;;;;;;;;2.70;86.60;;;;;;5094397;28;19923;-77
2021/03/24 02:25:28;;;;;;;;;;;2.70;86.60;;;;;;5094186;28;20382;-77
2021/03/24 02:27:55;;;;;;;;;;;2.70;86.60;;;;;;5094139;28;19911;-77
2021/03/24 02:30:26;;;;;;;;;;;2.70;86.70;;;;;;5094144;28;19974;-77
2021/03/24 02:32:55;;;;;;;;;;;2.70;86.70;;;;;;5075873;28;20369;-77
2021/03/24 02:35:24;;;;;;;;;;;2.60;86.60;;;;;;5076123;28;19912;-77
2021/03/24 02:37:51;;;;;;;;;;;2.60;86.60;;;;;;5093981;28;19974;-77
2021/03/24 02:40:17;;;;;;;;;;;2.60;86.70;;;;;;5094049;28;19912;-77
2021/03/24 02:42:45;;;;;;;;;;;2.60;86.80;;;;;;5093952;28;19966;-77
2021/03/24 02:45:13;;;;;;;;;;;2.60;86.70;;;;;;5091948;28;20358;-77
2021/03/24 02:47:39;;;;;;;;;;;2.50;86.70;;;;;;5093876;28;19937;-77
2021/03/24 02:50:05;;;;;;;;;;;2.50;86.70;;;;;;5075833;28;20009;-77
2021/03/24 02:52:31;;;;;;;;;;;2.40;86.70;;;;;;5092779;28;19912;-77
2021/03/24 02:54:57;;;;;;;;;;;2.50;86.80;;;;;;5093704;28;19919;-77
2021/03/24 02:57:23;;;;;;;;;;;2.40;86.70;;;;;;5093752;28;19915;-77
2021/03/24 02:59:50;;;;;;;;;;;2.40;86.70;;;;;;5093685;28;19912;-77
2021/03/24 03:02:17;;;;;;;;;;;2.40;86.70;;;;;;5076106;28;20419;-77
2021/03/24 03:04:45;;;;;;;;;;;2.40;86.70;;;;;;5091849;28;19912;-77
2021/03/24 03:07:20;;;;;;;;;;;2.40;86.70;;;;;;5093639;28;19969;-77
2021/03/24 03:09:49;;;;;;;;;;;2.50;86.70;;;;;;5093482;28;19977;-77
2021/03/24 03:12:24;;;;;;;;;;;2.40;86.60;;;;;;5093612;28;19912;-76
2021/03/24 03:14:54;;;;;;;;;;;2.40;86.60;;;;;;5092278;28;20014;-76
2021/03/24 03:17:34;;;;;;;;;;;2.40;86.60;;;;;;5093393;28;20419;-77
2021/03/24 03:20:08;;;;;;;;;;;2.40;86.60;;;;;;5091323;28;19912;-76
2021/03/24 03:22:36;;;;;;;;;;;2.40;86.60;;;;;;5073640;28;20007;-77
2021/03/24 03:25:08;;;;;;;;;;;2.30;86.60;;;;;;5091407;28;20341;-77
2021/03/24 03:27:34;;;;;;;;;;;2.40;86.60;;;;;;5073768;28;19912;-77
2021/03/24 03:30:00;;;;;;;;;;;2.40;86.60;;;;;;5093397;28;19962;-77
2021/03/24 03:32:27;;;;;;;;;;;2.30;86.60;;;;;;5092989;28;19916;-77
2021/03/24 03:34:56;;;;;;;;;;;2.40;86.70;;;;;;5093027;28;19947;-77
2021/03/24 03:37:29;;;;;;;;;;;2.20;86.60;;;;;;5093225;28;20273;-77
2021/03/24 03:39:55;;;;;;;;;;;2.30;86.70;;;;;;5093091;28;19943;-77
2021/03/24 03:42:22;;;;;;;;;;;2.20;86.60;;;;;;5093005;28;19916;-77
2021/03/24 03:44:48;;;;;;;;;;;2.30;86.70;;;;;;5093304;28;19912;-77
2021/03/24 03:47:14;;;;;;;;;;;2.40;86.80;;;;;;5092895;28;19908;-77
2021/03/24 03:49:40;;;;;;;;;;;2.30;86.80;;;;;;5092677;28;19918;-77
2021/03/24 03:52:20;;;;;;;;;;;2.20;86.80;;;;;;5092951;28;20385;-77
2021/03/24 03:54:49;;;;;;;;;;;2.20;86.80;;;;;;5092605;28;19919;-77
2021/03/24 03:57:19;;;;;;;;;;;2.20;86.80;;;;;;5074715;28;19908;-77
2021/03/24 03:59:51;;;;;;;;;;;2.10;86.80;;;;;;5092725;28;19916;-77
2021/03/24 04:02:18;;;;;;;;;;;2.10;86.80;;;;;;5092740;28;19923;-77
2021/03/24 04:04:47;;;;;;;;;;;2.10;86.80;;;;;;5092457;28;19981;-77
2021/03/24 04:07:14;;;;;;;;;;;2.10;86.80;;;;;;5092897;28;19933;-77
2021/03/24 04:09:41;;;;;;;;;;;2.20;86.90;;;;;;5092649;28;19912;-77
2021/03/24 04:12:10;;;;;;;;;;;2.20;87.00;;;;;;5092552;28;19918;-77
2021/03/24 04:14:37;;;;;;;;;;;2.10;86.90;;;;;;5072810;28;19915;-77
2021/03/24 04:17:04;;;;;;;;;;;2.10;86.90;;;;;;5092321;28;19912;-77
2021/03/24 04:19:32;;;;;;;;;;;2.10;86.80;;;;;;5074751;28;19970;-77
2021/03/24 04:21:59;;;;;;;;;;;2.20;86.80;;;;;;5092349;28;19912;-77
2021/03/24 04:24:27;;;;;;;;;;;2.10;86.70;;;;;;5092773;28;20372;-77
2021/03/24 04:26:57;;;;;;;;;;;2.10;86.70;;;;;;5092672;28;19919;-77
2021/03/24 04:29:26;;;;;;;;;;;2.10;86.70;;;;;;5091345;28;20456;-77
2021/03/24 04:31:53;;;;;;;;;;;2.10;86.70;;;;;;5072548;28;19919;-77
2021/03/24 04:34:19;;;;;;;;;;;2.00;86.70;;;;;;5092352;28;20278;-77
2021/03/24 04:36:48;;;;;;;;;;;2.00;86.70;;;;;;5092685;28;19912;-77
2021/03/24 04:39:19;;;;;;;;;;;2.00;86.80;;;;;;5092423;28;20313;-77
2021/03/24 04:41:46;;;;;;;;;;;2.00;86.80;;;;;;5092970;28;19916;-77
2021/03/24 04:44:23;;;;;;;;;;;2.10;86.90;;;;;;5092909;28;20358;-77
2021/03/24 04:46:51;;;;;;;;;;;1.90;86.80;;;;;;5091701;28;19961;-77
2021/03/24 04:49:20;;;;;;;;;;;1.90;86.80;;;;;;5092144;28;19912;-77
2021/03/24 04:51:46;;;;;;;;;;;1.90;86.90;;;;;;5092053;28;19912;-77
2021/03/24 04:54:14;;;;;;;;;;;1.90;86.90;;;;;;5092099;28;19919;-77
2021/03/24 04:56:41;;;;;;;;;;;1.90;86.90;;;;;;5092097;28;19911;-77
2021/03/24 04:59:07;;;;;;;;;;;1.80;86.90;;;;;;5073867;28;19918;-77
2021/03/24 05:01:39;;;;;;;;;;;1.90;87.60;;;;;;5092073;28;19953;-77
2021/03/24 05:04:07;;;;;;;;;;;1.80;86.90;;;;;;5091920;28;19967;-77
2021/03/24 05:06:37;;;;;;;;;;;1.80;86.90;;;;;;5091956;28;19918;-77
2021/03/24 05:09:05;;;;;;;;;;;1.80;86.90;;;;;;5091910;28;19919;-77
2021/03/24 05:11:35;;;;;;;;;;;1.80;87.00;;;;;;5092028;28;19912;-77
2021/03/24 05:14:07;;;;;;;;;;;1.80;87.00;;;;;;5091914;28;19904;-77
2021/03/24 05:16:36;;;;;;;;;;;1.80;86.90;;;;;;5075580;28;20315;-77
2021/03/24 05:19:02;;;;;;;;;;;1.80;86.90;;;;;;5095367;28;20319;-77
2021/03/24 05:21:47;;;;;;;;;;;1.70;86.90;;;;;;5095357;28;19919;-77
2021/03/24 05:24:14;;;;;;;;;;;1.70;86.90;;;;;;5095257;28;19915;-77
2021/03/24 05:26:43;;;;;;;;;;;1.70;86.90;;;;;;5077022;28;20269;-77
2021/03/24 05:29:12;;;;;;;;;;;1.80;87.00;;;;;;5095406;28;19912;-76
2021/03/24 05:31:40;;;;;;;;;;;1.80;86.90;;;;;;5095239;28;20409;-77
2021/03/24 05:34:12;;;;;;;;;;;1.80;86.90;;;;;;5095236;28;19919;-77
2021/03/24 05:36:42;;;;;;;;;;;1.80;86.80;;;;;;5076846;28;19915;-77
2021/03/24 05:39:11;;;;;;;;;;;1.80;86.90;;;;;;5094856;28;19935;-77
2021/03/24 05:41:50;;;;;;;;;;;1.80;86.80;;;;;;5094920;28;19985;-77
2021/03/24 05:44:35;;;;;;;;;;;1.90;86.80;;;;;;5095017;28;20292;-77
2021/03/24 05:47:13;;;;;;;;;;;1.90;86.70;;;;;;5079954;28;19912;-77
2021/03/24 05:49:46;;;;;;;;;;;1.90;86.60;;;;;;5094862;28;19920;-77
2021/03/24 05:52:23;;;;;;;;;;;1.90;86.60;;;;;;5094870;28;19912;-77
2021/03/24 05:54:57;;;;;;;;;;;2.00;86.50;;;;;;5093595;28;19912;-77
2021/03/24 05:57:26;;;;;;;;;;;1.90;86.50;;;;;;5094824;28;19955;-77
2021/03/24 05:59:56;;;;;;;;;;;2.00;86.50;;;;;;5094703;28;19912;-77
2021/03/24 06:02:29;;;;;;;;;;;2.00;86.40;;;;;;5094525;28;19920;-77
2021/03/24 06:04:59;;;;;;;;;;;2.00;86.40;;;;;;5094583;28;20355;-77
2021/03/24 06:07:37;;;;;;;;;;;2.00;86.40;;;;;;5094783;28;19912;-77
2021/03/24 06:10:14;;;;;;;;;;;2.00;86.30;;;;;;5076529;28;19916;-77
2021/03/24 06:12:54;;;;;;;;;;;2.10;86.30;;;;;;5093851;28;19918;-77
2021/03/24 06:15:34;;;;;;;;;;;2.10;86.30;;;;;;5092899;28;19912;-77
2021/03/24 06:18:14;;;;;;;;;;;2.20;86.30;;;;;;5094541;28;19912;-77
2021/03/24 06:20:54;;;;;;;;;;;2.20;86.30;;;;;;5094446;28;19912;-77
2021/03/24 06:23:40;;;;;;;;;;;2.30;86.30;;;;;;5092680;28;19923;-77
2021/03/24 06:26:25;;;;;;;;;;;2.20;86.20;;;;;;5092781;28;19918;-77
2021/03/24 06:29:05;;;;;;;;;;;2.20;86.10;;;;;;5061022;28;20006;-77
2021/03/24 06:31:44;;;;;;;;;;;2.30;86.10;;;;;;5093823;28;20358;-77
2021/03/24 06:34:25;;;;;;;;;;;2.40;86.10;;;;;;5093087;28;19918;-77
2021/03/24 06:37:05;;;;;;;;;;;2.40;86.10;;;;;;5092289;28;19912;-77
2021/03/24 06:39:46;;;;;;;;;;;2.60;86.20;;;;;;5093581;28;19919;-77
2021/03/24 06:42:27;;;;;;;;;;;2.50;86.00;;;;;;5093064;28;20286;-77
2021/03/24 06:45:07;;;;;;;;;;;2.60;85.90;;;;;;5092547;28;20281;-77
2021/03/24 06:47:47;;;;;;;;;;;2.60;85.80;;;;;;5093885;28;19912;-76
2021/03/24 06:50:23;;;;;;;;;;;2.70;85.80;;;;;;5093122;28;19912;-77
2021/03/24 06:52:58;;;;;;;;;;;2.80;85.70;;;;;;5093851;28;20361;-77
2021/03/24 06:55:38;;;;;;;;;;;2.90;85.60;;;;;;5092666;28;19912;-77
2021/03/24 06:58:18;;;;;;;;;;;2.90;85.50;;;;;;5093950;28;19912;-76
2021/03/24 07:00:54;;;;;;;;;;;3.00;85.30;;;;;;5092896;28;19974;-77
2021/03/24 07:03:38;;;;;;;;;;;3.20;85.30;;;;;;5093887;28;20368;-77
2021/03/24 07:06:18;;;;;;;;;;;3.20;85.10;;;;;;5093524;28;19912;-77
2021/03/24 07:08:49;;;;;;;;;;;3.40;85.10;;;;;;5093692;28;19919;-76
2021/03/24 07:11:23;;;;;;;;;;;3.60;85.00;;;;;;5093564;28;20365;-74
2021/03/24 07:13:59;;;;;;;;;;;3.50;84.80;;;;;;5093555;28;19912;-74
2021/03/24 07:16:44;;;;;;;;;;;3.70;84.80;;;;;;5091850;28;19912;-74
2021/03/24 07:19:19;;;;;;;;;;;3.80;84.70;;;;;;5091819;28;19912;-74
2021/03/24 07:21:56;;;;;;;;;;;3.90;84.60;;;;;;5092950;28;19923;-73
2021/03/24 07:24:27;;;;;;;;;;;4.00;85.00;;;;;;5092905;28;20381;-74
2021/03/24 07:27:10;;;;;;;;;;;4.20;84.30;;;;;;5092724;28;19924;-73
2021/03/24 07:29:50;;;;;;;;;;;4.30;84.20;;;;;;5093019;28;19912;-74
2021/03/24 07:32:23;;;;;;;;;;;4.40;84.10;;;;;;5093080;28;19952;-73
2021/03/24 07:34:55;;;;;;;;;;;4.50;83.80;;;;;;5093210;28;20283;-73
2021/03/24 07:37:30;;;;;;;;;;;4.70;83.60;;;;;;5075711;28;19912;-74
2021/03/24 07:40:10;;;;;;;;;;;4.80;83.50;;;;;;5092383;28;19919;-75
2021/03/24 07:42:51;;;;;;;;;;;4.90;83.30;;;;;;5074569;28;19923;-75
2021/03/24 07:45:31;;;;;;;;;;;5.10;83.20;;;;;;5074939;28;19912;-75
2021/03/24 07:48:07;;;;;;;;;;;5.30;83.10;;;;;;5091486;28;19918;-72
2021/03/24 07:50:36;;;;;;;;;;;5.50;82.80;;;;;;5092483;28;19919;-74
2021/03/24 07:53:12;;;;;;;;;;;5.60;82.50;;;;;;5093229;28;19915;-74
2021/03/24 07:55:41;;;;;;;;;;;5.80;82.40;;;;;;5098223;28;20369;-74
2021/03/24 07:58:20;;;;;;;;;;;5.90;82.30;;;;;;5096448;28;19918;-74
2021/03/24 08:01:06;;;;;;;;;;;6.10;82.20;;;;;;5092849;28;20357;-74
2021/03/24 08:03:42;;;;;;;;;;;6.20;82.00;;;;;;5093975;28;20004;-74
2021/03/24 08:06:17;;;;;;;;;;;6.40;81.90;;;;;;5094786;28;19916;-75
2021/03/24 08:08:55;;;;;;;;;;;6.50;81.80;;;;;;5092722;28;19912;-74
2021/03/24 08:11:25;;;;;;;;;;;6.60;81.70;;;;;;5093343;28;20267;-75
2021/03/24 08:14:11;;;;;;;;;;;6.70;81.60;;;;;;5082323;28;19922;-75
2021/03/24 08:16:54;;;;;;;;;;;6.90;81.70;;;;;;5083190;28;19946;-74
2021/03/24 08:19:33;;;;;;;;;;;7.00;81.60;;;;;;5099628;28;19912;-76
2021/03/24 08:22:14;;;;;;;;;;;7.20;81.60;;;;;;5093673;28;19912;-75
2021/03/24 08:24:49;;;;;;;;;;;7.30;81.60;;;;;;5094185;28;19937;-75
2021/03/24 08:27:20;;;;;;;;;;;7.50;81.50;;;;;;5094048;28;20319;-74
2021/03/24 08:29:53;;;;;;;;;;;7.60;81.50;;;;;;5094401;28;19949;-74
2021/03/24 08:32:32;;;;;;;;;;;7.70;81.40;;;;;;5075471;28;20377;-75
2021/03/24 08:35:10;;;;;;;;;;;7.80;81.30;;;;;;5092663;28;19912;-75
2021/03/24 08:37:54;;;;;;;;;;;7.90;81.40;;;;;;5076646;28;20373;-77
2021/03/24 08:40:35;;;;;;;;;;;8.00;81.30;;;;;;5092581;28;19918;-73
2021/03/24 08:43:08;;;;;;;;;;;8.10;81.20;;;;;;5094046;28;19916;-73
2021/03/24 08:45:42;;;;;;;;;;;8.20;81.10;;;;;;5092367;28;19912;-72
2021/03/24 08:48:12;;;;;;;;;;;8.30;81.10;;;;;;5093169;28;19918;-73
2021/03/24 08:50:42;;;;;;;;;;;8.40;81.10;;;;;;5092515;28;20374;-73
2021/03/24 08:53:18;;;;;;;;;;;8.60;81.20;;;;;;5095643;28;20331;-74
2021/03/24 08:55:55;;;;;;;;;;;8.70;81.00;;;;;;5095764;28;19961;-74
2021/03/24 08:58:23;;;;;;;;;;;8.80;81.00;;;;;;5095807;28;19912;-73
2021/03/24 09:01:01;;;;;;;;;;;8.90;80.90;;;;;;5095726;28;20002;-75
2021/03/24 09:03:46;;;;;;;;;;;8.90;80.90;;;;;;5096094;28;19924;-73
2021/03/24 09:06:31;;;;;;;;;;;9.00;80.80;;;;;;5101053;28;19976;-73
2021/03/24 09:09:09;;;;;;;;;;;9.20;80.80;;;;;;5080543;28;19908;-73
2021/03/24 09:11:41;;;;;;;;;;;9.40;80.80;;;;;;5095495;28;19919;-72
2021/03/24 09:14:27;;;;;;;;;;;9.40;80.70;;;;;;5095531;28;19920;-73
2021/03/24 09:17:12;;;;;;;;;;;9.60;80.80;;;;;;5094379;28;19912;-75
2021/03/24 09:19:58;;;;;;;;;;;9.70;80.60;;;;;;5093910;28;19912;-76
2021/03/24 09:22:39;;;;;;;;;;;9.70;80.60;;;;;;5079205;28;20365;-76
2021/03/24 09:25:13;;;;;;;;;;;9.70;80.50;;;;;;5095445;28;19992;-76
2021/03/24 09:27:50;;;;;;;;;;;9.90;80.40;;;;;;5093842;28;19955;-73
2021/03/24 09:30:28;;;;;;;;;;;10.00;80.40;;;;;;5095628;28;20366;-73
2021/03/24 09:33:08;;;;;;;;;;;10.20;80.30;;;;;;5093428;28;20365;-74
2021/03/24 09:35:42;;;;;;;;;;;10.20;80.30;;;;;;5077224;28;19919;-74
2021/03/24 09:38:11;;;;;;;;;;;10.20;80.30;;;;;;5094739;28;19918;-73
2021/03/24 09:40:43;;;;;;;;;;;10.40;80.40;;;;;;5075820;28;20239;-74
2021/03/24 09:43:22;;;;;;;;;;;10.40;80.20;;;;;;5075183;28;19916;-73
2021/03/24 09:46:07;;;;;;;;;;;10.60;80.20;;;;;;5094465;28;19923;-73
2021/03/24 09:48:43;;;;;;;;;;;10.60;80.00;;;;;;5094695;28;19973;-74
2021/03/24 09:51:11;;;;;;;;;;;10.70;80.00;;;;;;5094857;28;19915;-73
2021/03/24 09:53:38;;;;;;;;;;;10.70;79.90;;;;;;5094874;28;19919;-74
2021/03/24 09:56:06;;;;;;;;;;;10.70;79.70;;;;;;5094643;28;19953;-74
2021/03/24 09:58:38;;;;;;;;;;;10.80;79.70;;;;;;5094778;28;19972;-73
2021/03/24 10:01:24;;;;;;;;;;;10.90;80.20;;;;;;5094653;28;19973;-74
2021/03/24 10:04:03;;;;;;;;;;;11.00;79.50;;;;;;5079685;28;19916;-74
2021/03/24 10:06:42;;;;;;;;;;;11.10;79.50;;;;;;5094600;28;19912;-75
2021/03/24 10:09:16;;;;;;;;;;;11.20;79.40;;;;;;5094784;28;19957;-76
2021/03/24 10:11:55;;;;;;;;;;;11.30;79.30;;;;;;5101096;28;19919;-76
2021/03/24 10:14:31;;;;;;;;;;;11.50;79.30;;;;;;5095725;28;19912;-74
2021/03/24 10:16:58;;;;;;;;;;;11.50;79.20;;;;;;5097220;28;19995;-75
2021/03/24 10:19:31;;;;;;;;;;;11.60;79.00;;;;;;5097179;28;19912;-75
2021/03/24 10:22:00;;;;;;;;;;;11.70;78.80;;;;;;5097395;28;19912;-75
2021/03/24 10:24:28;;;;;;;;;;;11.80;78.60;;;;;;5096459;28;19954;-75
2021/03/24 10:26:55;;;;;;;;;;;12.00;78.60;;;;;;5095313;28;19912;-74
2021/03/24 10:29:25;;;;;;;;;;;12.00;78.40;;;;;;5094324;28;19920;-74
2021/03/24 10:31:57;;;;;;;;;;;12.10;78.40;;;;;;5076472;28;20438;-75
2021/03/24 10:34:31;;;;;;;;;;;12.30;78.20;;;;;;5094894;28;20003;-75
2021/03/24 10:37:02;;;;;;;;;;;12.30;77.90;;;;;;5094260;28;20365;-75
2021/03/24 10:39:46;;;;;;;;;;;12.40;77.80;;;;;;5093953;28;20373;-73
2021/03/24 10:42:25;;;;;;;;;;;12.60;77.70;;;;;;5092255;28;19918;-73
2021/03/24 10:44:56;;;;;;;;;;;12.70;77.40;;;;;;5093828;28;20361;-74
2021/03/24 10:47:35;;;;;;;;;;;12.90;77.20;;;;;;5093944;28;20436;-74
2021/03/24 10:50:15;;;;;;;;;;;13.00;76.90;;;;;;5094161;28;20017;-75
2021/03/24 10:52:58;;;;;;;;;;;13.00;76.50;;;;;;5093920;28;19947;-74
2021/03/24 10:55:24;;;;;;;;;;;13.10;76.40;;;;;;5075614;28;20411;-75
2021/03/24 10:57:56;;;;;;;;;;;13.20;76.40;;;;;;5094368;28;19982;-76
2021/03/24 11:00:28;;;;;;;;;;;13.20;76.40;;;;;;5093837;28;19976;-75
2021/03/24 11:02:59;;;;;;;;;;;13.30;76.30;;;;;;5093554;28;19923;-74
2021/03/24 11:05:28;;;;;;;;;;;13.20;76.30;;;;;;5075484;28;20014;-76
2021/03/24 11:08:07;;;;;;;;;;;13.30;76.30;;;;;;5094127;28;19920;-76
2021/03/24 11:10:42;;;;;;;;;;;13.30;76.10;;;;;;5092040;28;19912;-75
2021/03/24 11:13:27;;;;;;;;;;;13.30;76.10;;;;;;5092640;28;19919;-76
2021/03/24 11:16:07;;;;;;;;;;;13.40;76.10;;;;;;5092689;28;19926;-75
2021/03/24 11:18:35;;;;;;;;;;;13.50;75.70;;;;;;5092103;28;19958;-75
2021/03/24 11:21:05;;;;;;;;;;;13.60;75.60;;;;;;5091525;28;19911;-76
2021/03/24 11:23:38;;;;;;;;;;;13.60;75.30;;;;;;5090984;28;19923;-76
2021/03/24 11:26:23;;;;;;;;;;;13.90;75.10;;;;;;5073214;28;20433;-77
2021/03/24 11:28:54;;;;;;;;;;;13.90;74.80;;;;;;5091642;28;19908;-78
2021/03/24 11:31:23;;;;;;;;;;;14.00;74.80;;;;;;5091592;28;19911;-77
2021/03/24 11:33:52;;;;;;;;;;;14.10;74.70;;;;;;5073119;28;20389;-78
2021/03/24 11:36:23;;;;;;;;;;;14.10;74.40;;;;;;5091285;28;19912;-76
2021/03/24 11:38:59;;;;;;;;;;;14.20;74.20;;;;;;5073265;28;19908;-77
2021/03/24 11:41:26;;;;;;;;;;;14.30;74.00;;;;;;5092160;28;20358;-77
2021/03/24 11:44:10;;;;;;;;;;;14.40;73.80;;;;;;5075248;28;19945;-77
2021/03/24 11:46:56;;;;;;;;;;;14.70;73.70;;;;;;5091403;28;19912;-77
2021/03/24 11:49:33;;;;;;;;;;;14.80;73.30;;;;;;5091452;28;20339;-78
2021/03/24 11:52:09;;;;;;;;;;;14.70;72.90;;;;;;5092714;28;19919;-78
2021/03/24 11:54:37;;;;;;;;;;;14.70;73.10;;;;;;5091188;28;19954;-77
2021/03/24 11:57:23;;;;;;;;;;;14.70;73.10;;;;;;5093318;28;19934;-78
2021/03/24 12:00:08;;;;;;;;;;;14.70;73.00;;;;;;5078108;28;19912;-77
2021/03/24 12:02:54;;;;;;;;;;;14.70;72.70;;;;;;5090561;28;20007;-77
2021/03/24 12:05:22;;;;;;;;;;;14.80;72.80;;;;;;5091018;28;19961;-77
2021/03/24 12:08:08;;;;;;;;;;;14.80;72.50;;;;;;5092702;28;19912;-77
2021/03/24 12:10:37;;;;;;;;;;;14.80;72.40;;;;;;5061067;28;20411;-77
2021/03/24 12:13:12;;;;;;;;;;;14.80;72.80;;;;;;5093134;28;20281;-77
2021/03/24 12:15:39;;;;;;;;;;;14.80;72.80;;;;;;5090809;28;19935;-78
2021/03/24 12:18:06;;;;;;;;;;;15.00;72.40;;;;;;5092814;28;19912;-76
2021/03/24 12:20:32;;;;;;;;;;;15.00;72.20;;;;;;5092848;28;19912;-77
2021/03/24 12:22:58;;;;;;;;;;;15.10;72.00;;;;;;5074149;28;20057;-75
2021/03/24 12:25:26;;;;;;;;;;;15.30;71.90;;;;;;5077796;28;19912;-79
2021/03/24 12:27:54;;;;;;;;;;;15.40;71.70;;;;;;5097570;28;19919;-76
2021/03/24 12:30:33;;;;;;;;;;;15.40;71.40;;;;;;5099898;28;19945;-80
2021/03/24 12:33:05;;;;;;;;;;;15.50;70.80;;;;;;5098157;28;19969;-77
2021/03/24 12:35:31;;;;;;;;;;;15.60;70.80;;;;;;5080883;28;19912;-76
2021/03/24 12:38:07;;;;;;;;;;;15.70;70.60;;;;;;5099383;28;19989;-78
2021/03/24 12:40:33;;;;;;;;;;;15.70;70.50;;;;;;5098431;28;19993;-77
2021/03/24 12:43:07;;;;;;;;;;;15.70;70.50;;;;;;5100318;28;20357;-78
2021/03/24 12:45:38;;;;;;;;;;;15.80;70.10;;;;;;5100051;28;19912;-77
2021/03/24 12:48:09;;;;;;;;;;;15.80;70.10;;;;;;5080639;28;19916;-78
2021/03/24 12:50:36;;;;;;;;;;;15.90;69.90;;;;;;5080851;28;19924;-79
2021/03/24 12:53:13;;;;;;;;;;;15.90;69.50;;;;;;5099900;28;19908;-77
2021/03/24 12:55:39;;;;;;;;;;;15.90;69.00;;;;;;5099699;28;19912;-80
2021/03/24 12:58:25;;;;;;;;;;;15.90;69.10;;;;;;5064112;28;19916;-77
2021/03/24 13:00:58;;;;;;;;;;;15.80;69.00;;;;;;5098671;28;19927;-76
2021/03/24 13:03:44;;;;;;;;;;;15.90;69.20;;;;;;5098874;28;19916;-75
2021/03/24 13:06:15;;;;;;;;;;;15.90;68.70;;;;;;5098570;28;19919;-76
2021/03/24 13:08:54;;;;;;;;;;;16.00;68.60;;;;;;5096639;28;19966;-76
2021/03/24 13:11:28;;;;;;;;;;;15.90;68.60;;;;;;5098869;28;19911;-74
2021/03/24 13:13:58;;;;;;;;;;;15.80;69.60;;;;;;5098524;28;19919;-75
2021/03/24 13:16:28;;;;;;;;;;;16.00;69.20;;;;;;5098598;28;19908;-75
2021/03/24 13:19:01;;;;;;;;;;;16.00;68.70;;;;;;5099075;28;19916;-75
2021/03/24 13:21:33;;;;;;;;;;;16.20;68.50;;;;;;5080729;28;19908;-75
2021/03/24 13:24:09;;;;;;;;;;;16.10;68.40;;;;;;5078687;28;19916;-76
2021/03/24 13:26:36;;;;;;;;;;;16.10;68.40;;;;;;5097613;28;19912;-77
2021/03/24 13:29:07;;;;;;;;;;;16.20;68.50;;;;;;5080485;28;19912;-75
2021/03/24 13:31:37;;;;;;;;;;;16.20;68.10;;;;;;5097584;28;19912;-76
2021/03/24 13:34:16;;;;;;;;;;;16.10;68.10;;;;;;5099267;28;19912;-76
2021/03/24 13:36:46;;;;;;;;;;;16.30;69.00;;;;;;5096601;28;20006;-75
2021/03/24 13:39:14;;;;;;;;;;;16.20;67.50;;;;;;5095474;28;20383;-75
2021/03/24 13:41:42;;;;;;;;;;;16.30;67.60;;;;;;5094941;28;19958;-75
2021/03/24 13:44:12;;;;;;;;;;;16.40;67.40;;;;;;5094807;28;20271;-75
2021/03/24 13:46:40;;;;;;;;;;;16.40;67.50;;;;;;5095442;28;19911;-76
2021/03/24 13:49:20;;;;;;;;;;;16.50;67.20;;;;;;5095006;28;20037;-76
2021/03/24 13:51:47;;;;;;;;;;;16.50;67.20;;;;;;5092801;28;19919;-76
2021/03/24 13:54:27;;;;;;;;;;;16.40;67.40;;;;;;5094845;28;19912;-77
2021/03/24 13:57:02;;;;;;;;;;;16.50;67.50;;;;;;5096846;28;19912;-76
2021/03/24 13:59:29;;;;;;;;;;;16.50;66.80;;;;;;5076977;28;20291;-76
2021/03/24 14:02:15;;;;;;;;;;;16.30;66.80;;;;;;5094720;28;20391;-76
2021/03/24 14:04:47;;;;;;;;;;;16.50;67.10;;;;;;5079617;28;20384;-77
2021/03/24 14:07:22;;;;;;;;;;;16.60;66.70;;;;;;5094702;28;19912;-78
2021/03/24 14:10:07;;;;;;;;;;;16.60;66.50;;;;;;5095014;28;19951;-78
2021/03/24 14:12:39;;;;;;;;;;;16.60;66.40;;;;;;5075162;28;19934;-78
2021/03/24 14:15:16;;;;;;;;;;;16.50;66.70;;;;;;5095649;28;19912;-77
2021/03/24 14:17:59;;;;;;;;;;;16.40;66.70;;;;;;5096847;28;20004;-79
2021/03/24 14:20:27;;;;;;;;;;;16.40;66.70;;;;;;5095438;28;19994;-79
2021/03/24 14:22:58;;;;;;;;;;;16.40;66.90;;;;;;5077521;28;19916;-78
2021/03/24 14:25:28;;;;;;;;;;;16.30;67.00;;;;;;5094159;28;19942;-78
2021/03/24 14:27:59;;;;;;;;;;;16.20;67.20;;;;;;5095458;28;19911;-77
2021/03/24 14:30:40;;;;;;;;;;;16.10;67.00;;;;;;5095856;28;20053;-78
2021/03/24 14:33:20;;;;;;;;;;;16.00;67.10;;;;;;5093792;28;19955;-76
2021/03/24 14:35:53;;;;;;;;;;;16.20;67.20;;;;;;5094308;28;20420;-78
2021/03/24 14:38:39;;;;;;;;;;;16.20;66.90;;;;;;5094398;28;19966;-77
2021/03/24 14:41:07;;;;;;;;;;;16.20;66.70;;;;;;5078211;28;19970;-76
2021/03/24 14:43:42;;;;;;;;;;;16.20;66.50;;;;;;5095279;28;19959;-80
2021/03/24 14:46:11;;;;;;;;;;;16.30;66.80;;;;;;5072036;28;19912;-74
2021/03/24 14:48:57;;;;;;;;;;;16.20;66.20;;;;;;5103566;28;19981;-76
2021/03/24 14:51:33;;;;;;;;;;;16.30;66.10;;;;;;5109218;28;19970;-77
2021/03/24 14:54:11;;;;;;;;;;;16.20;66.10;;;;;;5103210;28;19908;-75
2021/03/24 14:56:39;;;;;;;;;;;16.30;66.10;;;;;;5098661;28;19911;-75